Terminal Aerodrome Forecast
Issued by NWS Sterling, VA

Current Version | Previous Version | Graphics & Text | Print | Product List | Glossary On
Versions: 1 2 3 4 5 6 7 8 9 10 11 12 13 14 15 16 17 18 19 20 21 22 23 24 25 26 27 28 29
278
FTUS41 KLWX 032058 AAC
TAFDCA
TAF AMD
KDCA 032058Z 0321/0418 16009KT 4SM -RA BR FEW006 OVC050
     FM040000 20006KT 2SM BR BKN007 OVC030
     FM040700 33012KT 5SM BR OVC050=

USA.gov is the U.S. government's official web portal to all federal, state and local government web resources and services.